Pigeon, MI

8:59 PM EST on February 27, 2015 (GMT -0500)
MesoWest Pigeon MI US MAWN | Change Station
CLOSE
Current Station
Personal Weather Station
Location: Pigeon, MI
Elevation: 615 ft
Nearby Weather Stations

Elev 615 ft 43.90 °N, 83.27 °W | Updated 59 minutes ago

Clear
Clear
7 °F
Feels Like -5 °F
N
7
Wind Variable Wind from SSW
Gusts 0.0 mph

Today
High -- | Low -- °F
--% Chance of Precip.
Yesterday
High -- | Low -- °F
Precip. -- in
7:13 AM 6:18 PM
Waxing Gibbous, 73% visible
Pressure 30.56 in
Visibility 10.0 miles
Clouds Clear
Windchill -5 °F
Dew Point -1 °F
Humidity 71%
Rainfall -999.00 in
Snow Depth Not available.
UV 0 out of 12
Pollen .40 out of 12
Air Quality Not available.
Flu Activity Not available.
METAR KBAX 280154Z AUTO 21005KT 10SM CLR M14/M19 A3056 RMK AO2 T11391188

More Conditions Fewer Conditions

Pressure 30.56 in
Visibility 10.0 miles
Clouds Clear
Windchill -5 °F
Dew Point -1 °F
Humidity 71%
Rainfall -999.00 in
Snow Depth Not available.
UV 0 out of 12
Pollen .40 out of 12
Air Quality Not available.
Flu Activity Not available.
METAR KBAX 280154Z AUTO 21005KT 10SM CLR M14/M19 A3056 RMK AO2 T11391188

More Conditions Fewer Conditions

10-Day Weather Forecast

Almanac

Astronomy

Feb. 27, 2015 Rise Set
Actual Time
Civil Twilight
Nautical Twilight
Astronomical Twilight
Moon
Length of Visible Light
Length of Day
Tomorrow will be .
, % of the Moon is Illuminated

Today's Extremes

State Highs State Lows

Community

WunderPhotos

Upload Photos

1,800,924 photos uploaded!

WunderBlogs® & News

Nearby

Air Quality

  Air Quality AQ Index Pollutant
Not available.

Snow Depth

Station Depth Elevation

Earthquake Activity

City Distance Mag. Time & Date
Minimum magnitude displayed is 2.5.

Coastal Water Temperatures

Place Temperature

Nearby Weather Stations